createdAt,value
2023-05-15T00:00:25.405Z,18.30
2023-05-15T00:01:00.594Z,16.02
2023-05-15T00:01:34.366Z,22.92
2023-05-15T00:02:08.163Z,11.68
2023-05-15T00:02:44.908Z,15.25
2023-05-15T00:03:18.977Z,20.38
2023-05-15T00:03:53.482Z,18.85
2023-05-15T00:04:28.669Z,23.02
2023-05-15T00:05:02.899Z,24.50
2023-05-15T00:05:36.799Z,23.35
2023-05-15T00:06:11.311Z,14.82
2023-05-15T00:06:44.396Z,13.63
2023-05-15T00:07:17.781Z,17.70
2023-05-15T00:07:52.525Z,20.20
2023-05-15T00:08:25.318Z,22.45
2023-05-15T00:08:59.905Z,23.00
2023-05-15T00:09:34.319Z,13.55
2023-05-15T00:10:08.008Z,25.45
2023-05-15T00:10:50.485Z,20.08
2023-05-15T00:11:35.352Z,22.00
2023-05-15T00:12:10.457Z,19.95
2023-05-15T00:12:45.816Z,17.25
2023-05-15T00:13:20.626Z,15.45
2023-05-15T00:13:55.501Z,11.80
2023-05-15T00:14:29.706Z,40.25
2023-05-15T00:15:04.503Z,12.35
2023-05-15T00:15:39.862Z,14.52
2023-05-15T00:16:14.811Z,14.77
2023-05-15T00:16:49.688Z,22.60
2023-05-15T00:17:23.677Z,21.02
2023-05-15T00:17:58.855Z,18.58
2023-05-15T00:18:34.478Z,20.77
2023-05-15T00:19:09.098Z,13.88
2023-05-15T00:19:43.898Z,18.25
2023-05-15T00:20:18.498Z,18.30
2023-05-15T00:20:53.526Z,17.67
2023-05-15T00:21:27.892Z,21.35
2023-05-15T00:22:02.658Z,17.80
2023-05-15T00:22:37.335Z,20.35
2023-05-15T00:23:11.097Z,22.13
2023-05-15T00:23:48.209Z,18.73
2023-05-15T00:24:23.039Z,11.73
2023-05-15T00:24:56.127Z,15.00
2023-05-15T00:25:31.251Z,18.00
2023-05-15T00:26:05.130Z,27.65
2023-05-15T00:26:39.446Z,16.85
2023-05-15T00:27:13.288Z,11.73
2023-05-15T00:27:47.944Z,22.55
2023-05-15T00:28:21.470Z,18.98
2023-05-15T00:28:56.732Z,15.40
2023-05-15T00:29:32.182Z,18.25
2023-05-15T00:30:06.182Z,17.80
2023-05-15T00:30:40.205Z,21.02
2023-05-15T00:31:15.565Z,15.55
2023-05-15T00:31:49.457Z,16.23
2023-05-15T00:32:22.462Z,10.45
2023-05-15T00:33:00.012Z,14.60
2023-05-15T00:33:33.671Z,23.92
2023-05-15T00:34:08.402Z,14.18
2023-05-15T00:34:42.463Z,17.33
2023-05-15T00:35:17.620Z,15.55
2023-05-15T00:35:51.411Z,18.92
2023-05-15T00:36:26.576Z,13.27
2023-05-15T00:37:01.876Z,13.43
2023-05-15T00:37:34.880Z,23.77
2023-05-15T00:38:10.963Z,9.75
2023-05-15T00:38:45.060Z,17.88
2023-05-15T00:39:19.158Z,16.55
2023-05-15T00:39:52.185Z,20.77
2023-05-15T00:40:27.198Z,24.38
2023-05-15T00:41:00.871Z,21.50
2023-05-15T00:41:34.687Z,19.52
2023-05-15T00:42:10.687Z,18.63
2023-05-15T00:42:44.543Z,16.98
2023-05-15T00:43:18.062Z,20.35
2023-05-15T00:43:53.860Z,18.33
2023-05-15T00:44:29.424Z,18.88
2023-05-15T00:45:04.395Z,24.65
2023-05-15T00:45:38.847Z,15.13
2023-05-15T00:46:14.670Z,15.93
2023-05-15T00:46:49.900Z,13.05
2023-05-15T00:47:24.778Z,15.30
2023-05-15T00:47:59.630Z,14.07
2023-05-15T00:48:32.685Z,13.60
2023-05-15T00:49:13.470Z,14.82
2023-05-15T00:49:47.710Z,16.75
2023-05-15T00:50:21.580Z,14.73
2023-05-15T00:50:55.952Z,15.57
2023-05-15T00:51:29.576Z,14.18
2023-05-15T00:52:03.937Z,13.80
2023-05-15T00:52:38.327Z,16.90
2023-05-15T00:53:12.060Z,12.38
2023-05-15T00:53:45.659Z,18.02
2023-05-15T00:54:20.088Z,14.68
2023-05-15T00:54:55.286Z,17.25
2023-05-15T00:55:30.305Z,14.65
2023-05-15T00:56:06.047Z,18.48
2023-05-15T00:56:40.072Z,14.30
2023-05-15T00:57:14.082Z,17.25
2023-05-15T00:57:50.089Z,15.63
2023-05-15T00:58:25.287Z,16.63
2023-05-15T00:58:59.912Z,18.90
2023-05-15T00:59:36.699Z,18.08
2023-05-15T01:00:10.585Z,20.30
2023-05-15T01:00:44.534Z,16.42
2023-05-15T01:01:19.149Z,15.95
2023-05-15T01:01:52.106Z,19.90
2023-05-15T01:02:25.575Z,16.60
2023-05-15T01:03:01.109Z,19.27
2023-05-15T01:03:36.668Z,12.55
2023-05-15T01:04:09.872Z,15.93
2023-05-15T01:04:44.728Z,17.92
2023-05-15T01:05:18.632Z,16.40
2023-05-15T01:05:52.447Z,17.73
2023-05-15T01:06:26.600Z,15.13
2023-05-15T01:07:00.483Z,23.13
2023-05-15T01:07:36.136Z,19.48
2023-05-15T01:08:16.278Z,18.17
2023-05-15T01:08:53.351Z,20.33
2023-05-15T01:09:27.317Z,14.43
2023-05-15T01:10:01.329Z,23.95
2023-05-15T01:10:39.490Z,18.58
2023-05-15T01:11:13.544Z,19.08
2023-05-15T01:11:48.860Z,23.63
2023-05-15T01:12:27.671Z,19.45
2023-05-15T01:13:01.009Z,21.52
2023-05-15T01:13:34.566Z,20.83
2023-05-15T01:14:09.351Z,17.88
2023-05-15T01:14:44.604Z,18.77
2023-05-15T01:15:18.991Z,19.88
2023-05-15T01:15:54.841Z,18.50
2023-05-15T01:16:29.174Z,17.27
2023-05-15T01:17:02.871Z,23.15
2023-05-15T01:17:37.299Z,16.63
2023-05-15T01:18:11.444Z,21.45
2023-05-15T01:18:45.931Z,22.08
2023-05-15T01:19:19.921Z,22.25
2023-05-15T01:19:54.985Z,20.88
2023-05-15T01:20:27.999Z,20.02
2023-05-15T01:21:17.450Z,23.17
2023-05-15T01:22:14.751Z,24.05
2023-05-15T01:22:56.518Z,22.83
2023-05-15T01:23:36.647Z,23.60
2023-05-15T01:24:18.425Z,21.10
2023-05-15T01:24:59.808Z,18.95
2023-05-15T01:25:46.626Z,21.65
2023-05-15T01:26:36.692Z,21.70
2023-05-15T01:27:17.771Z,23.92
2023-05-15T01:27:54.011Z,23.95
2023-05-15T01:28:30.014Z,24.50
2023-05-15T01:29:06.443Z,23.40
2023-05-15T01:29:44.301Z,29.70
2023-05-15T01:30:20.652Z,18.85
2023-05-15T01:30:56.186Z,26.63
2023-05-15T01:31:34.008Z,18.55
2023-05-15T01:32:11.807Z,23.10
2023-05-15T01:32:48.177Z,25.77
2023-05-15T01:33:24.725Z,21.55
2023-05-15T01:34:00.226Z,19.75
2023-05-15T01:34:35.927Z,21.90
2023-05-15T01:35:14.401Z,22.00
2023-05-15T01:35:52.840Z,22.17
2023-05-15T01:36:28.102Z,22.02
2023-05-15T01:37:05.645Z,22.85
2023-05-15T01:37:42.503Z,24.67
2023-05-15T01:38:19.682Z,22.00
2023-05-15T01:38:56.631Z,24.40
2023-05-15T01:39:30.721Z,25.33
2023-05-15T01:40:05.393Z,21.00
2023-05-15T01:40:39.970Z,20.65
2023-05-15T01:41:18.123Z,23.13
2023-05-15T01:41:55.889Z,22.75
2023-05-15T01:42:33.176Z,20.33
2023-05-15T01:43:09.665Z,24.15
2023-05-15T01:43:44.481Z,23.38
2023-05-15T01:44:21.247Z,19.52
2023-05-15T01:44:56.843Z,23.23
2023-05-15T01:45:32.931Z,21.42
2023-05-15T01:46:08.313Z,22.35
2023-05-15T01:46:45.749Z,22.70
2023-05-15T01:47:22.774Z,27.63
2023-05-15T01:47:58.504Z,22.58
2023-05-15T01:48:36.853Z,20.70
2023-05-15T01:49:13.139Z,22.52
2023-05-15T01:49:47.888Z,26.67
2023-05-15T01:50:22.360Z,21.73
2023-05-15T01:50:57.134Z,28.00
2023-05-15T01:51:32.893Z,24.60
2023-05-15T01:52:08.842Z,30.30
2023-05-15T01:52:45.643Z,35.63
2023-05-15T01:53:19.982Z,22.40
2023-05-15T01:53:54.546Z,22.63
2023-05-15T01:54:30.297Z,23.75
2023-05-15T01:55:04.909Z,24.08
2023-05-15T01:55:40.702Z,23.65
2023-05-15T01:56:16.381Z,24.00
2023-05-15T01:56:51.452Z,27.90
2023-05-15T01:57:25.302Z,32.50
2023-05-15T01:58:02.650Z,25.77
2023-05-15T01:58:39.007Z,22.60
2023-05-15T01:59:14.063Z,25.35
2023-05-15T01:59:48.802Z,22.25
2023-05-15T02:00:22.816Z,21.42
2023-05-15T02:00:56.835Z,21.88
2023-05-15T02:01:32.114Z,21.50
2023-05-15T02:02:06.824Z,26.67
2023-05-15T02:02:42.355Z,27.75
2023-05-15T02:03:17.842Z,25.50
2023-05-15T02:03:53.676Z,24.90
2023-05-15T02:04:27.344Z,33.30
2023-05-15T02:05:03.285Z,25.25
2023-05-15T02:05:37.817Z,23.38
2023-05-15T02:06:11.639Z,22.00
2023-05-15T02:06:47.534Z,25.52
2023-05-15T02:07:21.401Z,25.73
2023-05-15T02:07:55.584Z,22.52
2023-05-15T02:08:30.664Z,25.70
2023-05-15T02:09:04.730Z,23.42
2023-05-15T02:09:38.946Z,23.08
2023-05-15T02:10:15.343Z,22.38
2023-05-15T02:10:54.407Z,28.67
2023-05-15T02:11:27.788Z,27.13
2023-05-15T02:12:03.105Z,21.77
2023-05-15T02:12:36.970Z,27.48
2023-05-15T02:13:12.804Z,30.67
2023-05-15T02:13:47.748Z,23.45
2023-05-15T02:14:24.963Z,25.42
2023-05-15T02:14:59.416Z,26.73
2023-05-15T02:15:34.122Z,25.75
2023-05-15T02:16:09.005Z,29.48
2023-05-15T02:16:41.937Z,26.55
2023-05-15T02:17:16.674Z,27.00
2023-05-15T02:17:53.253Z,30.88
2023-05-15T02:18:26.862Z,22.27
2023-05-15T02:19:03.277Z,28.73
2023-05-15T02:19:37.287Z,20.92
2023-05-15T02:20:14.983Z,33.38
2023-05-15T02:20:49.652Z,29.83
2023-05-15T02:21:23.912Z,33.65
2023-05-15T02:21:57.420Z,38.63
2023-05-15T02:22:32.019Z,30.38
2023-05-15T02:23:07.682Z,28.13
2023-05-15T02:23:41.836Z,32.25
2023-05-15T02:24:16.194Z,31.27
2023-05-15T02:24:51.644Z,24.75
2023-05-15T02:25:30.186Z,24.33
2023-05-15T02:26:29.523Z,26.95
2023-05-15T02:27:06.846Z,19.52
2023-05-15T02:27:44.652Z,21.00
2023-05-15T02:28:24.986Z,26.02
2023-05-15T02:29:03.753Z,31.92
2023-05-15T02:29:40.732Z,23.80
2023-05-15T02:30:22.562Z,25.13
2023-05-15T02:30:57.463Z,30.85
2023-05-15T02:31:33.025Z,28.83
2023-05-15T02:32:11.819Z,25.27
2023-05-15T02:32:51.553Z,38.47
2023-05-15T02:33:27.683Z,43.15
2023-05-15T02:34:14.348Z,24.42
2023-05-15T02:34:53.598Z,33.20
2023-05-15T02:35:32.231Z,34.17
2023-05-15T02:36:08.893Z,32.20
2023-05-15T02:36:43.179Z,31.52
2023-05-15T02:37:18.300Z,70.78
2023-05-15T02:37:53.543Z,33.40
2023-05-15T02:38:31.033Z,41.50
2023-05-15T02:39:05.924Z,101.90
2023-05-15T02:39:40.027Z,53.78
2023-05-15T02:40:17.042Z,45.13
2023-05-15T02:40:52.438Z,24.08
2023-05-15T02:41:26.924Z,23.95
2023-05-15T02:42:01.668Z,25.25
2023-05-15T02:42:36.374Z,23.13
2023-05-15T02:43:11.353Z,30.73
2023-05-15T02:43:49.629Z,28.17
2023-05-15T02:44:24.744Z,26.92
2023-05-15T02:44:59.090Z,30.27
2023-05-15T02:45:34.036Z,22.65
2023-05-15T02:46:08.754Z,21.35
2023-05-15T02:46:42.490Z,22.45
2023-05-15T02:47:16.162Z,27.70
2023-05-15T02:47:51.205Z,24.85
2023-05-15T02:48:25.714Z,19.58
2023-05-15T02:49:00.034Z,22.10
2023-05-15T02:49:34.854Z,21.33
2023-05-15T02:50:08.452Z,24.60
2023-05-15T02:50:42.459Z,25.10
2023-05-15T02:51:17.475Z,26.70
2023-05-15T02:51:51.486Z,18.83
2023-05-15T02:52:24.793Z,20.52
2023-05-15T02:53:02.777Z,24.83
2023-05-15T02:53:41.855Z,18.45
2023-05-15T02:54:16.860Z,22.13
2023-05-15T02:54:51.573Z,26.50
2023-05-15T02:55:26.127Z,20.30
2023-05-15T02:56:02.681Z,23.70
2023-05-15T02:56:36.083Z,25.33
2023-05-15T02:57:11.868Z,19.23
2023-05-15T02:57:45.933Z,29.38
2023-05-15T02:58:20.773Z,20.85
2023-05-15T02:58:56.717Z,21.33
2023-05-15T02:59:31.080Z,27.38
2023-05-15T03:00:07.303Z,21.23
2023-05-15T03:00:42.236Z,23.35
2023-05-15T03:01:16.404Z,20.30
2023-05-15T03:01:50.592Z,17.30
2023-05-15T03:02:25.431Z,20.17
2023-05-15T03:03:06.105Z,21.38
2023-05-15T03:03:41.103Z,20.58
2023-05-15T03:04:14.981Z,21.48
2023-05-15T03:04:49.071Z,18.70
2023-05-15T03:05:23.860Z,17.73
2023-05-15T03:05:57.908Z,22.92
2023-05-15T03:06:32.357Z,24.23
2023-05-15T03:07:07.333Z,23.67
2023-05-15T03:07:41.661Z,22.88
2023-05-15T03:08:14.719Z,15.88
2023-05-15T03:08:50.786Z,17.48
2023-05-15T03:09:23.728Z,20.42
2023-05-15T03:09:56.847Z,28.95
2023-05-15T03:10:30.816Z,25.35
2023-05-15T03:11:05.425Z,23.23
2023-05-15T03:11:39.586Z,40.65
2023-05-15T03:12:14.120Z,41.67
2023-05-15T03:12:47.319Z,44.63
2023-05-15T03:13:20.945Z,23.80
2023-05-15T03:13:57.605Z,21.88
2023-05-15T03:14:32.009Z,19.15
2023-05-15T03:15:05.490Z,17.38
2023-05-15T03:15:40.797Z,18.02
2023-05-15T03:16:14.388Z,22.23
2023-05-15T03:16:48.500Z,16.17
2023-05-15T03:17:22.936Z,23.33
2023-05-15T03:17:56.912Z,16.80
2023-05-15T03:18:30.366Z,21.83
2023-05-15T03:19:05.561Z,21.50
2023-05-15T03:19:39.881Z,17.90
2023-05-15T03:20:14.670Z,18.73
2023-05-15T03:20:49.863Z,18.15
2023-05-15T03:21:24.821Z,23.08
2023-05-15T03:21:58.171Z,18.63
2023-05-15T03:22:32.880Z,24.55
2023-05-15T03:23:06.389Z,16.77
2023-05-15T03:23:40.544Z,22.08
2023-05-15T03:24:15.981Z,19.45
2023-05-15T03:24:49.209Z,20.80
2023-05-15T03:25:22.744Z,19.77
2023-05-15T03:25:57.769Z,14.43
2023-05-15T03:26:31.499Z,24.88
2023-05-15T03:27:05.402Z,14.48
2023-05-15T03:27:40.307Z,15.40
2023-05-15T03:28:13.197Z,17.48
2023-05-15T03:28:46.946Z,19.63
2023-05-15T03:29:23.328Z,63.45
2023-05-15T03:29:57.103Z,19.52
2023-05-15T03:30:31.477Z,18.40
2023-05-15T03:31:08.089Z,41.03
2023-05-15T03:31:41.577Z,31.88
2023-05-15T03:32:14.974Z,14.00
2023-05-15T03:32:49.805Z,19.42
2023-05-15T03:33:22.956Z,14.60
2023-05-15T03:33:56.595Z,20.75
2023-05-15T03:34:30.769Z,15.48
2023-05-15T03:35:05.376Z,18.30
2023-05-15T03:35:39.013Z,14.93
2023-05-15T03:36:13.315Z,15.52
2023-05-15T03:36:46.528Z,13.60
2023-05-15T03:37:20.495Z,18.98
2023-05-15T03:37:57.499Z,15.23
2023-05-15T03:38:30.795Z,16.65
2023-05-15T03:39:04.900Z,13.82
2023-05-15T03:39:39.775Z,16.88
2023-05-15T03:40:13.458Z,17.77
2023-05-15T03:40:50.845Z,17.98
2023-05-15T03:41:26.779Z,17.00
2023-05-15T03:42:00.371Z,16.98
2023-05-15T03:42:34.608Z,15.80
2023-05-15T03:43:09.266Z,17.40
2023-05-15T03:43:42.461Z,17.08
2023-05-15T03:44:17.041Z,21.80
2023-05-15T03:44:53.678Z,15.60
2023-05-15T03:45:28.076Z,14.50
2023-05-15T03:46:01.866Z,19.27
2023-05-15T03:46:37.285Z,15.52
2023-05-15T03:47:11.733Z,17.35
2023-05-15T03:47:46.010Z,13.77
2023-05-15T03:48:21.379Z,15.07
2023-05-15T03:48:56.640Z,18.17
2023-05-15T03:49:30.837Z,13.57
2023-05-15T03:50:04.409Z,16.10
2023-05-15T03:50:40.516Z,13.75
2023-05-15T03:51:15.219Z,20.08
2023-05-15T03:51:49.650Z,13.38
2023-05-15T03:52:22.522Z,13.65
2023-05-15T03:52:57.275Z,13.20
2023-05-15T03:53:30.836Z,15.40
2023-05-15T03:54:05.849Z,16.65
2023-05-15T03:54:41.197Z,13.43
2023-05-15T03:55:15.689Z,11.43
2023-05-15T03:55:49.867Z,12.40
2023-05-15T03:56:23.728Z,19.83
2023-05-15T03:56:57.700Z,12.88
2023-05-15T03:57:31.537Z,15.65
2023-05-15T03:58:06.110Z,13.07
2023-05-15T03:58:41.104Z,14.48
2023-05-15T03:59:14.412Z,16.20
2023-05-15T03:59:49.535Z,12.90
2023-05-15T04:00:26.306Z,11.85
2023-05-15T04:00:59.847Z,22.13
2023-05-15T04:01:44.062Z,15.48
2023-05-15T04:02:24.908Z,12.05
2023-05-15T04:03:00.667Z,13.73
2023-05-15T04:03:33.671Z,11.18
2023-05-15T04:04:07.007Z,12.32
2023-05-15T04:04:41.514Z,10.60
2023-05-15T04:05:15.894Z,15.55
2023-05-15T04:05:50.352Z,10.50
2023-05-15T04:06:23.615Z,9.98
2023-05-15T04:06:57.814Z,13.70
2023-05-15T04:07:33.462Z,13.05
2023-05-15T04:08:07.272Z,10.18
2023-05-15T04:08:41.684Z,11.65
2023-05-15T04:09:15.690Z,13.07
2023-05-15T04:09:49.493Z,10.82
2023-05-15T04:10:23.992Z,15.02
2023-05-15T04:10:57.488Z,11.70
2023-05-15T04:11:32.196Z,11.70
2023-05-15T04:12:09.229Z,11.98
2023-05-15T04:12:42.468Z,12.45
2023-05-15T04:13:15.862Z,12.88
2023-05-15T04:13:50.852Z,9.70
2023-05-15T04:14:24.880Z,11.13
2023-05-15T04:15:13.369Z,11.98
2023-05-15T04:15:49.429Z,10.98
2023-05-15T04:16:30.383Z,13.07
2023-05-15T04:17:05.027Z,10.52
2023-05-15T04:17:38.920Z,12.15
2023-05-15T04:18:13.067Z,13.75
2023-05-15T04:18:47.855Z,16.45
2023-05-15T04:19:22.546Z,17.98
2023-05-15T04:19:56.606Z,15.10
2023-05-15T04:20:30.647Z,9.63
2023-05-15T04:21:05.209Z,13.48
2023-05-15T04:21:39.028Z,12.15
2023-05-15T04:22:13.840Z,11.68
2023-05-15T04:22:47.640Z,11.20
2023-05-15T04:23:21.253Z,12.80
2023-05-15T04:23:55.651Z,12.02
2023-05-15T04:24:29.778Z,13.02
2023-05-15T04:25:03.447Z,11.88
2023-05-15T04:25:39.059Z,11.30
2023-05-15T04:26:13.163Z,9.82
2023-05-15T04:26:47.831Z,10.32
2023-05-15T04:27:23.138Z,10.65
2023-05-15T04:27:57.239Z,13.43
2023-05-15T04:28:33.170Z,12.02
2023-05-15T04:29:07.432Z,13.05
2023-05-15T04:29:40.707Z,11.10
2023-05-15T04:30:15.819Z,14.10
2023-05-15T04:30:50.898Z,14.27
2023-05-15T04:31:25.462Z,8.38
2023-05-15T04:32:01.109Z,8.93
2023-05-15T04:32:35.045Z,11.82
2023-05-15T04:33:08.954Z,10.00
2023-05-15T04:33:44.179Z,10.60
2023-05-15T04:34:18.161Z,11.02
2023-05-15T04:34:51.483Z,11.65
2023-05-15T04:35:26.355Z,13.45
2023-05-15T04:36:00.803Z,11.25
2023-05-15T04:36:34.221Z,12.35
2023-05-15T04:37:09.016Z,10.80
2023-05-15T04:37:43.881Z,9.60
2023-05-15T04:38:17.692Z,8.60
2023-05-15T04:38:53.804Z,9.02
2023-05-15T04:39:27.285Z,20.63
2023-05-15T04:40:00.775Z,9.93
2023-05-15T04:40:36.205Z,9.82
2023-05-15T04:41:09.461Z,14.35
2023-05-15T04:41:43.742Z,10.10
2023-05-15T04:42:18.698Z,9.27
2023-05-15T04:42:54.067Z,11.80
2023-05-15T04:43:28.381Z,11.05
2023-05-15T04:44:04.175Z,9.30
2023-05-15T04:44:38.354Z,8.55
2023-05-15T04:45:12.856Z,7.90
2023-05-15T04:45:47.669Z,11.93
2023-05-15T04:46:22.770Z,7.88
2023-05-15T04:46:56.913Z,6.35
2023-05-15T04:47:31.527Z,9.43
2023-05-15T04:48:05.801Z,6.35
2023-05-15T04:48:39.757Z,7.65
2023-05-15T04:49:14.627Z,8.25
2023-05-15T04:49:50.775Z,10.40
2023-05-15T04:50:25.436Z,5.38
2023-05-15T04:51:00.763Z,10.52
2023-05-15T04:51:34.869Z,6.22
2023-05-15T04:52:08.284Z,5.20
2023-05-15T04:52:43.766Z,13.68
2023-05-15T04:53:17.731Z,5.80
2023-05-15T04:53:54.721Z,8.00
2023-05-15T04:54:28.896Z,13.77
2023-05-15T04:55:02.528Z,5.50
2023-05-15T04:55:37.734Z,4.82
2023-05-15T04:56:11.578Z,8.25
2023-05-15T04:56:46.612Z,7.43
2023-05-15T04:57:21.615Z,8.07
2023-05-15T04:57:55.619Z,5.05
2023-05-15T04:58:29.993Z,6.30
2023-05-15T04:59:04.834Z,3.42
2023-05-15T04:59:39.545Z,10.10
2023-05-15T05:00:14.721Z,4.45
2023-05-15T05:00:49.199Z,5.03
2023-05-15T05:01:24.780Z,4.22
2023-05-15T05:01:58.590Z,6.05
2023-05-15T05:02:33.272Z,3.95
2023-05-15T05:03:07.975Z,4.43
2023-05-15T05:03:41.626Z,5.80
2023-05-15T05:04:20.069Z,6.43
2023-05-15T05:04:54.279Z,5.00
2023-05-15T05:05:29.342Z,8.10
2023-05-15T05:06:03.404Z,7.78
2023-05-15T05:06:38.237Z,5.22
2023-05-15T05:07:14.058Z,9.95
2023-05-15T05:07:47.933Z,4.22
2023-05-15T05:08:23.691Z,3.90
2023-05-15T05:08:57.109Z,4.43
2023-05-15T05:09:31.542Z,4.18
2023-05-15T05:10:07.447Z,5.65
2023-05-15T05:10:41.512Z,5.10
2023-05-15T05:11:15.880Z,5.35
2023-05-15T05:11:51.891Z,4.80
2023-05-15T05:12:25.992Z,5.10
2023-05-15T05:13:04.169Z,4.50
2023-05-15T05:13:37.345Z,4.85
2023-05-15T05:14:10.697Z,4.60
2023-05-15T05:14:45.543Z,5.88
2023-05-15T05:15:19.872Z,4.82
2023-05-15T05:15:53.785Z,5.53
2023-05-15T05:16:29.167Z,4.40
2023-05-15T05:17:01.967Z,7.90
2023-05-15T05:17:35.721Z,4.60
2023-05-15T05:18:10.201Z,6.13
2023-05-15T05:18:44.214Z,6.75
2023-05-15T05:19:18.186Z,4.07
2023-05-15T05:19:52.596Z,5.05
2023-05-15T05:20:27.098Z,7.93
2023-05-15T05:21:00.687Z,4.22
2023-05-15T05:21:35.656Z,6.13
2023-05-15T05:22:10.193Z,7.57
2023-05-15T05:22:44.600Z,4.97
2023-05-15T05:23:18.433Z,4.30
2023-05-15T05:23:54.489Z,5.43
2023-05-15T05:24:29.116Z,4.82
2023-05-15T05:25:02.319Z,6.65
2023-05-15T05:25:37.831Z,4.78
2023-05-15T05:26:12.805Z,4.43
2023-05-15T05:26:46.255Z,3.92
2023-05-15T05:27:22.056Z,3.92
2023-05-15T05:27:56.030Z,4.85
2023-05-15T05:28:29.617Z,5.57
2023-05-15T05:29:03.242Z,4.25
2023-05-15T05:29:37.977Z,4.38
2023-05-15T05:30:13.141Z,6.80
2023-05-15T05:30:47.375Z,5.15
2023-05-15T05:31:22.124Z,4.68
2023-05-15T05:31:57.948Z,4.72
2023-05-15T05:32:32.942Z,5.75
2023-05-15T05:33:08.496Z,6.55
2023-05-15T05:33:41.795Z,7.00
2023-05-15T05:34:15.429Z,4.85
2023-05-15T05:34:50.966Z,7.78
2023-05-15T05:35:24.926Z,11.68
2023-05-15T05:35:58.695Z,3.65
2023-05-15T05:36:33.634Z,6.00
2023-05-15T05:37:07.580Z,3.15
2023-05-15T05:37:41.757Z,6.65
2023-05-15T05:38:15.489Z,2.58
2023-05-15T05:38:50.392Z,5.07
2023-05-15T05:39:25.173Z,3.85
2023-05-15T05:39:59.254Z,4.78
2023-05-15T05:40:32.924Z,4.70
2023-05-15T05:41:07.363Z,3.53
2023-05-15T05:41:41.034Z,4.10
2023-05-15T05:42:14.570Z,3.45
2023-05-15T05:42:49.227Z,4.20
2023-05-15T05:43:24.077Z,3.22
2023-05-15T05:43:56.678Z,6.05
2023-05-15T05:44:30.643Z,4.38
2023-05-15T05:45:03.761Z,5.28
2023-05-15T05:45:37.686Z,4.43
2023-05-15T05:46:12.371Z,4.32
2023-05-15T05:46:46.701Z,3.72
2023-05-15T05:47:21.781Z,3.97
2023-05-15T05:47:59.267Z,6.72
2023-05-15T05:48:33.239Z,4.55
2023-05-15T05:49:07.637Z,3.83
2023-05-15T05:49:41.401Z,4.15
2023-05-15T05:50:14.787Z,3.50
2023-05-15T05:50:49.321Z,2.88
2023-05-15T05:51:23.409Z,2.78
2023-05-15T05:51:57.279Z,4.93
2023-05-15T05:52:32.279Z,3.17
2023-05-15T05:53:05.553Z,4.55
2023-05-15T05:53:39.711Z,6.80
2023-05-15T05:54:15.057Z,5.28
2023-05-15T05:54:49.774Z,3.00
2023-05-15T05:55:23.899Z,2.95
2023-05-15T05:55:58.207Z,5.95
2023-05-15T05:56:31.813Z,2.47
2023-05-15T05:57:08.171Z,4.70
2023-05-15T05:57:42.113Z,2.90
2023-05-15T05:58:24.841Z,4.30
2023-05-15T05:59:02.111Z,3.20
2023-05-15T05:59:36.042Z,3.90
2023-05-15T06:00:11.332Z,7.43
2023-05-15T06:00:46.133Z,3.38
2023-05-15T06:01:20.191Z,3.92
2023-05-15T06:01:57.515Z,3.20
2023-05-15T06:02:32.477Z,4.07
2023-05-15T06:03:05.484Z,3.42
2023-05-15T06:03:41.882Z,3.40
2023-05-15T06:04:16.869Z,3.70
2023-05-15T06:04:53.516Z,2.50
2023-05-15T06:05:27.485Z,4.10
2023-05-15T06:06:00.914Z,3.65
2023-05-15T06:06:37.698Z,3.72
2023-05-15T06:07:12.251Z,3.05
2023-05-15T06:07:46.132Z,2.70
2023-05-15T06:08:20.916Z,4.65
2023-05-15T06:08:56.502Z,2.63
2023-05-15T06:09:31.797Z,1.73
2023-05-15T06:10:10.018Z,1.90
2023-05-15T06:10:45.494Z,4.18
2023-05-15T06:11:19.064Z,2.58
2023-05-15T06:11:54.880Z,1.45
2023-05-15T06:12:28.979Z,2.40
2023-05-15T06:13:02.400Z,3.95
2023-05-15T06:13:37.996Z,4.28
2023-05-15T06:14:11.487Z,2.28
2023-05-15T06:14:44.588Z,2.67
2023-05-15T06:15:20.907Z,2.10
2023-05-15T06:15:54.182Z,2.00
2023-05-15T06:16:28.287Z,5.07
2023-05-15T06:17:03.267Z,5.78
2023-05-15T06:17:37.804Z,2.78
2023-05-15T06:18:12.553Z,2.85
2023-05-15T06:18:45.916Z,2.42
2023-05-15T06:19:22.402Z,2.08
2023-05-15T06:19:57.555Z,3.45
2023-05-15T06:20:31.145Z,3.58
2023-05-15T06:21:07.010Z,4.85
2023-05-15T06:21:39.595Z,5.90
2023-05-15T06:22:13.598Z,2.65
2023-05-15T06:22:49.314Z,3.33
2023-05-15T06:23:24.327Z,4.30
2023-05-15T06:23:58.251Z,3.88
2023-05-15T06:24:32.271Z,5.82
2023-05-15T06:25:07.948Z,3.47
2023-05-15T06:25:43.193Z,2.65
2023-05-15T06:26:18.639Z,2.67
2023-05-15T06:26:52.610Z,2.97
2023-05-15T06:27:28.278Z,3.05
2023-05-15T06:28:01.649Z,3.00
2023-05-15T06:28:35.795Z,2.65
2023-05-15T06:29:11.119Z,3.80
2023-05-15T06:29:46.153Z,6.47
2023-05-15T06:30:19.670Z,2.70
2023-05-15T06:30:55.148Z,2.92
2023-05-15T06:31:29.379Z,6.05
2023-05-15T06:32:03.636Z,3.33
2023-05-15T06:32:44.859Z,5.57
2023-05-15T06:33:18.420Z,6.15
2023-05-15T06:33:53.717Z,7.05
2023-05-15T06:34:28.034Z,3.47
2023-05-15T06:35:01.788Z,4.28
2023-05-15T06:35:36.471Z,2.58
2023-05-15T06:36:12.163Z,3.88
2023-05-15T06:36:45.076Z,2.80
2023-05-15T06:37:18.899Z,2.50
2023-05-15T06:37:54.325Z,2.47
2023-05-15T06:38:27.944Z,2.28
2023-05-15T06:39:03.535Z,4.22
2023-05-15T06:39:37.823Z,1.92
2023-05-15T06:40:13.574Z,4.57
2023-05-15T06:40:48.020Z,2.30
2023-05-15T06:41:22.959Z,1.95
2023-05-15T06:42:01.917Z,3.38
2023-05-15T06:42:38.232Z,2.25
2023-05-15T06:43:11.552Z,4.53
2023-05-15T06:43:46.686Z,2.08
2023-05-15T06:44:20.756Z,3.28
2023-05-15T06:44:53.938Z,2.25
2023-05-15T06:45:29.211Z,3.45
2023-05-15T06:46:02.628Z,2.83
2023-05-15T06:46:37.988Z,2.65
2023-05-15T06:47:13.900Z,2.40
2023-05-15T06:47:49.138Z,4.32
2023-05-15T06:48:24.106Z,2.58
2023-05-15T06:48:57.712Z,3.58
2023-05-15T06:49:32.763Z,3.20
2023-05-15T06:50:10.246Z,3.00
2023-05-15T06:50:43.626Z,4.95
2023-05-15T06:51:18.014Z,3.30
2023-05-15T06:51:52.442Z,2.95
2023-05-15T06:52:25.357Z,2.00
2023-05-15T06:53:01.312Z,4.10
2023-05-15T06:53:34.154Z,3.60
2023-05-15T06:54:08.557Z,2.25
2023-05-15T06:54:44.588Z,2.05
2023-05-15T06:55:18.257Z,2.53
2023-05-15T06:55:54.183Z,5.05
2023-05-15T06:56:29.295Z,1.75
2023-05-15T06:57:02.785Z,2.72
2023-05-15T06:57:36.729Z,1.67
2023-05-15T06:58:11.546Z,4.05
2023-05-15T06:58:45.004Z,2.25
2023-05-15T06:59:18.411Z,3.08
2023-05-15T06:59:54.247Z,4.13
2023-05-15T07:00:29.555Z,2.35
2023-05-15T07:01:04.028Z,2.20
2023-05-15T07:01:38.542Z,3.83
2023-05-15T07:02:12.791Z,2.25
2023-05-15T07:02:49.119Z,5.32
2023-05-15T07:03:25.023Z,1.90
2023-05-15T07:03:59.601Z,2.20
2023-05-15T07:04:33.960Z,3.55
2023-05-15T07:05:09.032Z,3.38
2023-05-15T07:05:44.388Z,1.65
2023-05-15T07:06:18.762Z,3.17
2023-05-15T07:06:52.461Z,1.40
2023-05-15T07:07:26.867Z,1.73
2023-05-15T07:08:00.522Z,4.57
2023-05-15T07:08:35.421Z,1.73
2023-05-15T07:09:09.948Z,2.53
2023-05-15T07:09:48.899Z,4.38
2023-05-15T07:10:22.307Z,2.65
2023-05-15T07:10:57.991Z,2.15
2023-05-15T07:11:34.210Z,3.58
2023-05-15T07:12:11.085Z,2.97
2023-05-15T07:12:45.561Z,4.50
2023-05-15T07:13:20.104Z,3.10
2023-05-15T07:13:55.653Z,1.98
2023-05-15T07:14:29.508Z,2.17
2023-05-15T07:15:03.521Z,3.08
2023-05-15T07:15:39.130Z,6.60
2023-05-15T07:16:13.097Z,3.38
2023-05-15T07:16:47.835Z,2.65
2023-05-15T07:17:22.460Z,1.85
2023-05-15T07:17:58.393Z,3.38
2023-05-15T07:18:34.041Z,2.13
2023-05-15T07:19:10.131Z,2.65
2023-05-15T07:19:45.357Z,1.83
2023-05-15T07:20:19.798Z,3.10
2023-05-15T07:20:53.738Z,6.25
2023-05-15T07:21:27.764Z,5.13
2023-05-15T07:22:03.430Z,2.90
2023-05-15T07:22:44.441Z,2.33
2023-05-15T07:23:23.130Z,2.47
2023-05-15T07:23:56.925Z,2.03
2023-05-15T07:24:31.890Z,4.22
2023-05-15T07:25:08.584Z,4.43
2023-05-15T07:25:45.263Z,1.33
2023-05-15T07:26:28.696Z,1.73
2023-05-15T07:27:08.320Z,2.10
2023-05-15T07:27:43.551Z,2.72
2023-05-15T07:28:17.050Z,3.28
2023-05-15T07:28:52.357Z,2.33
2023-05-15T07:29:28.032Z,1.60
2023-05-15T07:30:02.694Z,3.08
2023-05-15T07:30:36.685Z,2.17
2023-05-15T07:31:11.311Z,3.45
2023-05-15T07:31:45.041Z,4.43
2023-05-15T07:32:20.757Z,2.30
2023-05-15T07:32:55.057Z,3.33
2023-05-15T07:33:30.512Z,2.38
2023-05-15T07:34:06.289Z,3.70
2023-05-15T07:34:39.704Z,3.13
2023-05-15T07:35:14.961Z,6.38
2023-05-15T07:35:48.335Z,1.33
2023-05-15T07:36:22.752Z,4.18
2023-05-15T07:36:57.877Z,2.85
2023-05-15T07:37:31.863Z,2.63
2023-05-15T07:38:05.069Z,1.48